sensor_id;sensor_type;location;lat;lon;timestamp;pressure;altitude;pressure_sealevel;temperature;humidity
62928;BME280;51070;52.236;-0.892;2023-04-03T00:01:07;102332.77;;;4.24;73.63
62928;BME280;51070;52.236;-0.892;2023-04-03T00:03:33;102334.34;;;4.22;73.55
62928;BME280;51070;52.236;-0.892;2023-04-03T00:05:58;102329.79;;;4.23;73.80
62928;BME280;51070;52.236;-0.892;2023-04-03T00:08:24;102327.92;;;4.26;73.87
62928;BME280;51070;52.236;-0.892;2023-04-03T00:10:50;102330.39;;;4.25;73.66
62928;BME280;51070;52.236;-0.892;2023-04-03T00:13:16;102327.95;;;4.24;73.97
62928;BME280;51070;52.236;-0.892;2023-04-03T00:15:41;102331.76;;;4.22;73.62
62928;BME280;51070;52.236;-0.892;2023-04-03T00:18:07;102328.08;;;4.19;73.81
62928;BME280;51070;52.236;-0.892;2023-04-03T00:20:33;102321.31;;;4.16;73.97
62928;BME280;51070;52.236;-0.892;2023-04-03T00:23:00;102318.46;;;4.13;74.32
62928;BME280;51070;52.236;-0.892;2023-04-03T00:25:25;102321.17;;;4.11;74.34
62928;BME280;51070;52.236;-0.892;2023-04-03T00:27:51;102320.98;;;4.08;74.19
62928;BME280;51070;52.236;-0.892;2023-04-03T00:30:18;102320.73;;;4.05;74.32
62928;BME280;51070;52.236;-0.892;2023-04-03T00:32:44;102319.88;;;4.01;74.56
62928;BME280;51070;52.236;-0.892;2023-04-03T00:35:10;102317.98;;;3.99;74.45
62928;BME280;51070;52.236;-0.892;2023-04-03T00:37:36;102317.66;;;3.95;74.61
62928;BME280;51070;52.236;-0.892;2023-04-03T00:40:03;102313.10;;;3.92;74.77
62928;BME280;51070;52.236;-0.892;2023-04-03T00:42:29;102312.11;;;3.88;74.86
62928;BME280;51070;52.236;-0.892;2023-04-03T00:47:23;102316.73;;;3.82;75.20
62928;BME280;51070;52.236;-0.892;2023-04-03T00:49:50;102314.85;;;3.80;75.25
62928;BME280;51070;52.236;-0.892;2023-04-03T00:52:19;102315.23;;;3.80;75.45
62928;BME280;51070;52.236;-0.892;2023-04-03T00:54:48;102320.45;;;3.82;75.37
62928;BME280;51070;52.236;-0.892;2023-04-03T00:57:15;102319.38;;;3.83;75.87
62928;BME280;51070;52.236;-0.892;2023-04-03T00:59:49;102320.39;;;3.85;75.83
62928;BME280;51070;52.236;-0.892;2023-04-03T01:02:16;102317.73;;;3.86;75.90
62928;BME280;51070;52.236;-0.892;2023-04-03T01:04:43;102315.52;;;3.86;75.78
62928;BME280;51070;52.236;-0.892;2023-04-03T01:07:18;102314.48;;;3.86;75.86
62928;BME280;51070;52.236;-0.892;2023-04-03T01:09:48;102317.64;;;3.83;75.83
62928;BME280;51070;52.236;-0.892;2023-04-03T01:12:14;102315.90;;;3.76;75.73
62928;BME280;51070;52.236;-0.892;2023-04-03T01:14:49;102318.39;;;3.71;75.97
62928;BME280;51070;52.236;-0.892;2023-04-03T01:25:15;102316.13;;;3.57;76.62
62928;BME280;51070;52.236;-0.892;2023-04-03T01:27:41;102313.92;;;3.55;76.73
62928;BME280;51070;52.236;-0.892;2023-04-03T01:30:07;102313.43;;;3.52;76.96
62928;BME280;51070;52.236;-0.892;2023-04-03T01:32:33;102306.80;;;3.50;76.91
62928;BME280;51070;52.236;-0.892;2023-04-03T01:34:58;102303.79;;;3.50;76.88
62928;BME280;51070;52.236;-0.892;2023-04-03T01:37:24;102303.60;;;3.50;76.94
62928;BME280;51070;52.236;-0.892;2023-04-03T01:39:49;102304.70;;;3.51;77.41
62928;BME280;51070;52.236;-0.892;2023-04-03T01:42:15;102304.95;;;3.52;77.35
62928;BME280;51070;52.236;-0.892;2023-04-03T01:44:41;102309.59;;;3.52;77.38
62928;BME280;51070;52.236;-0.892;2023-04-03T01:47:07;102305.88;;;3.53;77.64
62928;BME280;51070;52.236;-0.892;2023-04-03T01:49:32;102307.88;;;3.54;77.63
62928;BME280;51070;52.236;-0.892;2023-04-03T01:51:58;102302.27;;;3.55;77.65
62928;BME280;51070;52.236;-0.892;2023-04-03T01:54:23;102302.58;;;3.54;77.64
62928;BME280;51070;52.236;-0.892;2023-04-03T01:56:49;102302.02;;;3.52;77.65
62928;BME280;51070;52.236;-0.892;2023-04-03T01:59:14;102299.13;;;3.50;77.59
62928;BME280;51070;52.236;-0.892;2023-04-03T02:01:42;102295.95;;;3.47;77.77
62928;BME280;51070;52.236;-0.892;2023-04-03T02:04:10;102299.73;;;3.43;77.54
62928;BME280;51070;52.236;-0.892;2023-04-03T02:06:36;102300.88;;;3.41;78.05
62928;BME280;51070;52.236;-0.892;2023-04-03T02:09:01;102294.20;;;3.38;77.89
62928;BME280;51070;52.236;-0.892;2023-04-03T02:11:27;102296.46;;;3.35;77.83
62928;BME280;51070;52.236;-0.892;2023-04-03T02:13:52;102293.09;;;3.33;78.16
62928;BME280;51070;52.236;-0.892;2023-04-03T02:16:17;102293.02;;;3.33;78.31
62928;BME280;51070;52.236;-0.892;2023-04-03T02:18:43;102290.39;;;3.33;78.34
62928;BME280;51070;52.236;-0.892;2023-04-03T02:21:08;102287.20;;;3.34;78.18
62928;BME280;51070;52.236;-0.892;2023-04-03T02:23:33;102286.61;;;3.36;78.51
62928;BME280;51070;52.236;-0.892;2023-04-03T02:26:07;102283.96;;;3.34;78.52
62928;BME280;51070;52.236;-0.892;2023-04-03T02:28:33;102284.63;;;3.34;78.43
62928;BME280;51070;52.236;-0.892;2023-04-03T02:30:59;102286.73;;;3.33;78.41
62928;BME280;51070;52.236;-0.892;2023-04-03T02:33:25;102281.98;;;3.31;78.76
62928;BME280;51070;52.236;-0.892;2023-04-03T02:35:54;102280.92;;;3.31;78.70
62928;BME280;51070;52.236;-0.892;2023-04-03T02:38:21;102281.56;;;3.30;78.89
62928;BME280;51070;52.236;-0.892;2023-04-03T02:40:47;102282.60;;;3.28;78.56
62928;BME280;51070;52.236;-0.892;2023-04-03T02:43:12;102284.23;;;3.28;78.76
62928;BME280;51070;52.236;-0.892;2023-04-03T02:45:38;102285.04;;;3.23;78.35
62928;BME280;51070;52.236;-0.892;2023-04-03T02:48:04;102282.34;;;3.18;78.52
62928;BME280;51070;52.236;-0.892;2023-04-03T02:50:29;102280.25;;;3.13;78.90
62928;BME280;51070;52.236;-0.892;2023-04-03T02:52:55;102282.05;;;3.09;78.95
62928;BME280;51070;52.236;-0.892;2023-04-03T02:55:20;102283.77;;;3.07;79.15
62928;BME280;51070;52.236;-0.892;2023-04-03T02:57:46;102284.33;;;3.05;79.32
62928;BME280;51070;52.236;-0.892;2023-04-03T03:00:12;102286.62;;;3.06;79.86
62928;BME280;51070;52.236;-0.892;2023-04-03T03:02:38;102283.23;;;3.07;79.71
62928;BME280;51070;52.236;-0.892;2023-04-03T03:05:04;102284.54;;;3.06;79.47
62928;BME280;51070;52.236;-0.892;2023-04-03T03:07:29;102282.21;;;3.01;79.27
62928;BME280;51070;52.236;-0.892;2023-04-03T03:09:55;102283.27;;;2.95;79.89
62928;BME280;51070;52.236;-0.892;2023-04-03T03:12:20;102286.31;;;2.93;80.29
62928;BME280;51070;52.236;-0.892;2023-04-03T03:14:50;102286.36;;;2.88;79.93
62928;BME280;51070;52.236;-0.892;2023-04-03T03:17:15;102285.04;;;2.82;80.25
62928;BME280;51070;52.236;-0.892;2023-04-03T03:19:41;102283.52;;;2.80;80.39
62928;BME280;51070;52.236;-0.892;2023-04-03T03:22:06;102281.58;;;2.78;80.80
62928;BME280;51070;52.236;-0.892;2023-04-03T03:24:32;102281.27;;;2.72;80.43
62928;BME280;51070;52.236;-0.892;2023-04-03T03:26:57;102287.11;;;2.69;80.74
62928;BME280;51070;52.236;-0.892;2023-04-03T03:29:22;102287.91;;;2.65;80.82
62928;BME280;51070;52.236;-0.892;2023-04-03T03:31:48;102283.59;;;2.60;81.18
62928;BME280;51070;52.236;-0.892;2023-04-03T03:34:13;102282.23;;;2.58;81.56
62928;BME280;51070;52.236;-0.892;2023-04-03T03:36:39;102279.58;;;2.59;81.54
62928;BME280;51070;52.236;-0.892;2023-04-03T03:39:04;102276.50;;;2.59;81.70
62928;BME280;51070;52.236;-0.892;2023-04-03T03:41:30;102277.27;;;2.60;81.70
62928;BME280;51070;52.236;-0.892;2023-04-03T03:43:56;102275.68;;;2.62;81.70
62928;BME280;51070;52.236;-0.892;2023-04-03T03:46:22;102275.42;;;2.64;81.64
62928;BME280;51070;52.236;-0.892;2023-04-03T03:48:47;102270.90;;;2.66;81.52
62928;BME280;51070;52.236;-0.892;2023-04-03T03:51:13;102269.81;;;2.67;81.59
62928;BME280;51070;52.236;-0.892;2023-04-03T03:53:38;102274.48;;;2.67;81.98
62928;BME280;51070;52.236;-0.892;2023-04-03T03:56:04;102271.56;;;2.69;81.76
62928;BME280;51070;52.236;-0.892;2023-04-03T03:58:31;102276.79;;;2.70;81.72
62928;BME280;51070;52.236;-0.892;2023-04-03T04:01:00;102272.74;;;2.71;81.91
62928;BME280;51070;52.236;-0.892;2023-04-03T04:03:26;102275.06;;;2.72;81.89
62928;BME280;51070;52.236;-0.892;2023-04-03T04:05:52;102278.74;;;2.71;81.83
62928;BME280;51070;52.236;-0.892;2023-04-03T04:08:17;102279.61;;;2.71;81.64
62928;BME280;51070;52.236;-0.892;2023-04-03T04:10:42;102273.67;;;2.73;82.02
62928;BME280;51070;52.236;-0.892;2023-04-03T04:13:08;102272.63;;;2.77;82.42
62928;BME280;51070;52.236;-0.892;2023-04-03T04:15:34;102272.52;;;2.81;82.31
62928;BME280;51070;52.236;-0.892;2023-04-03T04:17:59;102269.36;;;2.84;81.91
62928;BME280;51070;52.236;-0.892;2023-04-03T04:20:24;102268.59;;;2.89;82.54
62928;BME280;51070;52.236;-0.892;2023-04-03T04:22:50;102268.73;;;2.95;82.34
62928;BME280;51070;52.236;-0.892;2023-04-03T04:25:16;102269.30;;;3.00;82.21
62928;BME280;51070;52.236;-0.892;2023-04-03T04:27:41;102269.06;;;3.03;81.85
62928;BME280;51070;52.236;-0.892;2023-04-03T04:30:08;102267.90;;;3.05;81.80
62928;BME280;51070;52.236;-0.892;2023-04-03T04:32:33;102269.66;;;3.08;81.51
62928;BME280;51070;52.236;-0.892;2023-04-03T04:34:59;102268.85;;;3.04;81.26
62928;BME280;51070;52.236;-0.892;2023-04-03T04:37:25;102263.46;;;2.95;80.74
62928;BME280;51070;52.236;-0.892;2023-04-03T04:39:50;102267.30;;;2.92;81.07
62928;BME280;51070;52.236;-0.892;2023-04-03T04:42:16;102270.20;;;2.86;81.24
62928;BME280;51070;52.236;-0.892;2023-04-03T04:44:42;102270.64;;;2.83;81.38
62928;BME280;51070;52.236;-0.892;2023-04-03T04:47:07;102268.36;;;2.81;81.36
62928;BME280;51070;52.236;-0.892;2023-04-03T04:49:33;102268.52;;;2.83;81.66
62928;BME280;51070;52.236;-0.892;2023-04-03T04:51:58;102270.58;;;2.88;82.05
62928;BME280;51070;52.236;-0.892;2023-04-03T04:54:24;102266.73;;;2.91;81.51
62928;BME280;51070;52.236;-0.892;2023-04-03T04:56:49;102265.21;;;2.88;81.47
62928;BME280;51070;52.236;-0.892;2023-04-03T04:59:15;102267.41;;;2.87;82.13
62928;BME280;51070;52.236;-0.892;2023-04-03T05:01:40;102273.54;;;2.91;82.10
62928;BME280;51070;52.236;-0.892;2023-04-03T05:04:06;102270.84;;;2.88;81.80
62928;BME280;51070;52.236;-0.892;2023-04-03T05:06:31;102270.60;;;2.83;81.75
62928;BME280;51070;52.236;-0.892;2023-04-03T05:08:58;102268.52;;;2.84;82.14
62928;BME280;51070;52.236;-0.892;2023-04-03T05:11:24;102269.58;;;2.83;82.14
62928;BME280;51070;52.236;-0.892;2023-04-03T05:13:50;102271.58;;;2.79;82.07
62928;BME280;51070;52.236;-0.892;2023-04-03T05:16:16;102274.31;;;2.77;82.65
62928;BME280;51070;52.236;-0.892;2023-04-03T05:18:41;102272.20;;;2.76;82.83
62928;BME280;51070;52.236;-0.892;2023-04-03T05:21:07;102271.90;;;2.77;83.16
62928;BME280;51070;52.236;-0.892;2023-04-03T05:23:32;102271.92;;;2.77;83.12
62928;BME280;51070;52.236;-0.892;2023-04-03T05:25:58;102271.23;;;2.80;83.90
62928;BME280;51070;52.236;-0.892;2023-04-03T05:28:24;102271.84;;;2.87;83.70
62928;BME280;51070;52.236;-0.892;2023-04-03T05:30:53;102272.98;;;2.93;83.72
62928;BME280;51070;52.236;-0.892;2023-04-03T05:33:20;102270.05;;;2.90;83.11
62928;BME280;51070;52.236;-0.892;2023-04-03T05:35:46;102270.51;;;2.88;83.47
62928;BME280;51070;52.236;-0.892;2023-04-03T05:38:11;102271.79;;;2.87;83.44
62928;BME280;51070;52.236;-0.892;2023-04-03T05:40:37;102273.34;;;2.81;83.44
62928;BME280;51070;52.236;-0.892;2023-04-03T05:43:02;102273.56;;;2.82;83.64
62928;BME280;51070;52.236;-0.892;2023-04-03T05:45:28;102273.92;;;2.82;83.82
62928;BME280;51070;52.236;-0.892;2023-04-03T05:47:53;102283.77;;;2.79;83.82
62928;BME280;51070;52.236;-0.892;2023-04-03T05:50:19;102282.20;;;2.79;83.66
62928;BME280;51070;52.236;-0.892;2023-04-03T05:52:47;102282.79;;;2.82;83.90
62928;BME280;51070;52.236;-0.892;2023-04-03T05:55:14;102283.17;;;2.88;84.51
62928;BME280;51070;52.236;-0.892;2023-04-03T05:57:40;102284.22;;;2.94;84.12
62928;BME280;51070;52.236;-0.892;2023-04-03T06:00:11;102285.39;;;3.00;84.50
62928;BME280;51070;52.236;-0.892;2023-04-03T06:02:37;102287.48;;;3.10;84.32
62928;BME280;51070;52.236;-0.892;2023-04-03T06:05:04;102277.14;;;3.21;84.40
62928;BME280;51070;52.236;-0.892;2023-04-03T06:07:30;102279.31;;;3.28;83.59
62928;BME280;51070;52.236;-0.892;2023-04-03T06:09:57;102280.71;;;3.26;83.22
62928;BME280;51070;52.236;-0.892;2023-04-03T06:12:23;102279.67;;;3.28;83.37
62928;BME280;51070;52.236;-0.892;2023-04-03T06:14:48;102277.75;;;3.30;83.46
62928;BME280;51070;52.236;-0.892;2023-04-03T06:17:15;102282.83;;;3.29;83.44
62928;BME280;51070;52.236;-0.892;2023-04-03T06:19:41;102284.65;;;3.34;83.89
62928;BME280;51070;52.236;-0.892;2023-04-03T06:22:07;102286.44;;;3.46;83.80
62928;BME280;51070;52.236;-0.892;2023-04-03T06:24:32;102287.25;;;3.59;83.98
62928;BME280;51070;52.236;-0.892;2023-04-03T06:26:58;102289.28;;;3.71;83.39
62928;BME280;51070;52.236;-0.892;2023-04-03T06:29:24;102291.36;;;3.79;82.93
62928;BME280;51070;52.236;-0.892;2023-04-03T06:31:50;102290.64;;;3.83;82.48
62928;BME280;51070;52.236;-0.892;2023-04-03T06:34:16;102291.80;;;3.89;82.58
62928;BME280;51070;52.236;-0.892;2023-04-03T06:36:42;102293.20;;;3.95;82.47
62928;BME280;51070;52.236;-0.892;2023-04-03T06:39:12;102289.14;;;4.06;82.53
62928;BME280;51070;52.236;-0.892;2023-04-03T06:41:39;102288.64;;;4.16;82.22
62928;BME280;51070;52.236;-0.892;2023-04-03T06:44:04;102295.17;;;4.25;82.14
62928;BME280;51070;52.236;-0.892;2023-04-03T06:46:30;102298.26;;;4.33;81.77
62928;BME280;51070;52.236;-0.892;2023-04-03T06:48:55;102296.71;;;4.37;80.77
62928;BME280;51070;52.236;-0.892;2023-04-03T06:51:24;102300.45;;;4.41;80.79
62928;BME280;51070;52.236;-0.892;2023-04-03T06:53:52;102296.89;;;4.46;80.78
62928;BME280;51070;52.236;-0.892;2023-04-03T06:56:18;102298.02;;;4.55;81.48
62928;BME280;51070;52.236;-0.892;2023-04-03T06:58:44;102296.13;;;4.68;81.06
62928;BME280;51070;52.236;-0.892;2023-04-03T07:01:11;102302.27;;;4.81;80.42
62928;BME280;51070;52.236;-0.892;2023-04-03T07:03:38;102303.31;;;4.85;79.66
62928;BME280;51070;52.236;-0.892;2023-04-03T07:06:05;102294.11;;;4.79;79.69
62928;BME280;51070;52.236;-0.892;2023-04-03T07:08:33;102300.07;;;4.85;80.52
62928;BME280;51070;52.236;-0.892;2023-04-03T07:10:58;102297.83;;;4.97;80.17
62928;BME280;51070;52.236;-0.892;2023-04-03T07:13:24;102291.46;;;5.10;79.89
62928;BME280;51070;52.236;-0.892;2023-04-03T07:15:49;102290.33;;;5.24;79.31
62928;BME280;51070;52.236;-0.892;2023-04-03T07:18:16;102291.08;;;5.38;78.64
62928;BME280;51070;52.236;-0.892;2023-04-03T07:20:42;102287.63;;;5.48;78.01
62928;BME280;51070;52.236;-0.892;2023-04-03T07:23:08;102289.86;;;5.62;77.68
62928;BME280;51070;52.236;-0.892;2023-04-03T07:25:34;102282.73;;;5.79;77.21
62928;BME280;51070;52.236;-0.892;2023-04-03T07:27:59;102287.54;;;5.92;76.58
62928;BME280;51070;52.236;-0.892;2023-04-03T07:30:24;102285.39;;;6.02;75.93
62928;BME280;51070;52.236;-0.892;2023-04-03T07:32:51;102286.88;;;6.15;76.00
62928;BME280;51070;52.236;-0.892;2023-04-03T07:35:17;102289.58;;;6.30;76.07
62928;BME280;51070;52.236;-0.892;2023-04-03T07:37:43;102290.81;;;6.40;75.21
62928;BME280;51070;52.236;-0.892;2023-04-03T07:40:09;102294.42;;;6.47;75.11
62928;BME280;51070;52.236;-0.892;2023-04-03T07:42:35;102293.20;;;6.54;74.93
62928;BME280;51070;52.236;-0.892;2023-04-03T07:45:02;102294.60;;;6.61;74.63
62928;BME280;51070;52.236;-0.892;2023-04-03T07:47:28;102294.94;;;6.73;74.23
62928;BME280;51070;52.236;-0.892;2023-04-03T07:49:54;102297.80;;;6.86;73.47
62928;BME280;51070;52.236;-0.892;2023-04-03T07:52:19;102294.29;;;6.95;73.02
62928;BME280;51070;52.236;-0.892;2023-04-03T07:54:45;102292.02;;;6.99;72.60
62928;BME280;51070;52.236;-0.892;2023-04-03T07:57:10;102290.40;;;7.10;72.28
62928;BME280;51070;52.236;-0.892;2023-04-03T07:59:36;102295.08;;;7.25;72.46
62928;BME280;51070;52.236;-0.892;2023-04-03T08:02:02;102291.14;;;7.42;72.00
62928;BME280;51070;52.236;-0.892;2023-04-03T08:04:30;102289.95;;;7.52;71.39
62928;BME280;51070;52.236;-0.892;2023-04-03T08:06:55;102291.02;;;7.55;70.48
62928;BME280;51070;52.236;-0.892;2023-04-03T08:09:21;102291.83;;;7.57;70.37
62928;BME280;51070;52.236;-0.892;2023-04-03T08:11:47;102290.52;;;7.66;70.76
62928;BME280;51070;52.236;-0.892;2023-04-03T08:14:13;102288.80;;;7.76;70.45
62928;BME280;51070;52.236;-0.892;2023-04-03T08:16:43;102290.09;;;7.87;70.35
62928;BME280;51070;52.236;-0.892;2023-04-03T08:19:09;102293.80;;;7.96;69.65
62928;BME280;51070;52.236;-0.892;2023-04-03T08:21:36;102291.59;;;8.04;69.61
62928;BME280;51070;52.236;-0.892;2023-04-03T08:24:02;102293.24;;;8.23;69.35
62928;BME280;51070;52.236;-0.892;2023-04-03T08:26:28;102292.13;;;8.32;68.76
62928;BME280;51070;52.236;-0.892;2023-04-03T08:28:54;102289.11;;;8.36;68.29
62928;BME280;51070;52.236;-0.892;2023-04-03T08:31:19;102289.62;;;8.52;67.87
62928;BME280;51070;52.236;-0.892;2023-04-03T08:33:46;102288.84;;;8.61;67.28
62928;BME280;51070;52.236;-0.892;2023-04-03T08:36:29;102292.13;;;8.71;66.61
62928;BME280;51070;52.236;-0.892;2023-04-03T08:38:56;102289.71;;;8.87;65.98
62928;BME280;51070;52.236;-0.892;2023-04-03T08:41:35;102290.38;;;9.76;64.22
62928;BME280;51070;52.236;-0.892;2023-04-03T08:44:13;102294.95;;;9.86;63.58
62928;BME280;51070;52.236;-0.892;2023-04-03T08:49:35;102282.61;;;10.95;62.42
62928;BME280;51070;52.236;-0.892;2023-04-03T08:52:14;102279.02;;;11.65;60.46
62928;BME280;51070;52.236;-0.892;2023-04-03T08:54:47;102279.56;;;11.99;58.93
62928;BME280;51070;52.236;-0.892;2023-04-03T08:57:14;102282.04;;;11.96;57.89
62928;BME280;51070;52.236;-0.892;2023-04-03T08:59:40;102277.81;;;12.57;56.12
62928;BME280;51070;52.236;-0.892;2023-04-03T09:02:42;102276.05;;;13.07;55.60
62928;BME280;51070;52.236;-0.892;2023-04-03T09:05:17;102277.19;;;13.23;54.00
62928;BME280;51070;52.236;-0.892;2023-04-03T09:08:04;102277.65;;;13.65;53.43
62928;BME280;51070;52.236;-0.892;2023-04-03T09:10:33;102275.02;;;14.83;51.55
62928;BME280;51070;52.236;-0.892;2023-04-03T09:13:08;102272.56;;;15.28;50.66
62928;BME280;51070;52.236;-0.892;2023-04-03T09:15:36;102265.02;;;16.08;49.67
62928;BME280;51070;52.236;-0.892;2023-04-03T09:20:46;102271.00;;;16.04;48.02
62928;BME280;51070;52.236;-0.892;2023-04-03T09:26:07;102268.44;;;18.41;44.94
62928;BME280;51070;52.236;-0.892;2023-04-03T09:28:38;102269.15;;;19.92;42.33
62928;BME280;51070;52.236;-0.892;2023-04-03T09:31:16;102271.83;;;19.77;40.63
62928;BME280;51070;52.236;-0.892;2023-04-03T09:33:43;102267.20;;;18.74;41.97
62928;BME280;51070;52.236;-0.892;2023-04-03T09:36:10;102266.50;;;17.85;42.50
62928;BME280;51070;52.236;-0.892;2023-04-03T09:38:36;102269.68;;;17.20;42.73
62928;BME280;51070;52.236;-0.892;2023-04-03T09:41:04;102270.36;;;17.37;42.95
62928;BME280;51070;52.236;-0.892;2023-04-03T09:43:30;102265.17;;;17.68;43.14
62928;BME280;51070;52.236;-0.892;2023-04-03T09:46:17;102268.09;;;17.60;43.66
62928;BME280;51070;52.236;-0.892;2023-04-03T09:48:52;102268.98;;;17.44;42.78
62928;BME280;51070;52.236;-0.892;2023-04-03T09:51:25;102266.80;;;17.70;42.30
62928;BME280;51070;52.236;-0.892;2023-04-03T09:53:52;102266.59;;;17.63;42.58
62928;BME280;51070;52.236;-0.892;2023-04-03T09:58:51;102267.52;;;16.99;43.61
62928;BME280;51070;52.236;-0.892;2023-04-03T10:01:32;102257.40;;;16.51;44.04
62928;BME280;51070;52.236;-0.892;2023-04-03T10:04:18;102262.02;;;16.58;43.62
62928;BME280;51070;52.236;-0.892;2023-04-03T10:06:53;102261.91;;;16.88;43.34
62928;BME280;51070;52.236;-0.892;2023-04-03T10:09:31;102253.23;;;16.52;42.97
62928;BME280;51070;52.236;-0.892;2023-04-03T10:12:08;102254.89;;;15.72;44.47
62928;BME280;51070;52.236;-0.892;2023-04-03T10:14:40;102258.09;;;15.32;45.19
62928;BME280;51070;52.236;-0.892;2023-04-03T10:22:45;102256.90;;;14.52;46.55
62928;BME280;51070;52.236;-0.892;2023-04-03T10:28:00;102254.23;;;15.18;46.39
62928;BME280;51070;52.236;-0.892;2023-04-03T10:39:12;102238.90;;;15.50;43.45
62928;BME280;51070;52.236;-0.892;2023-04-03T10:47:56;102236.67;;;14.42;45.25
62928;BME280;51070;52.236;-0.892;2023-04-03T10:53:14;102229.83;;;15.21;45.91
62928;BME280;51070;52.236;-0.892;2023-04-03T10:56:19;102225.98;;;15.92;45.43
62928;BME280;51070;52.236;-0.892;2023-04-03T10:58:54;102224.00;;;16.12;43.59
62928;BME280;51070;52.236;-0.892;2023-04-03T11:01:31;102219.58;;;16.69;42.71
62928;BME280;51070;52.236;-0.892;2023-04-03T11:03:59;102219.98;;;16.93;41.99
62928;BME280;51070;52.236;-0.892;2023-04-03T11:06:32;102216.20;;;17.06;42.08
62928;BME280;51070;52.236;-0.892;2023-04-03T11:09:03;102220.84;;;16.81;41.58
62928;BME280;51070;52.236;-0.892;2023-04-03T11:11:37;102216.98;;;16.26;42.00
62928;BME280;51070;52.236;-0.892;2023-04-03T11:14:25;102217.56;;;15.76;42.63
62928;BME280;51070;52.236;-0.892;2023-04-03T11:22:35;102207.75;;;16.10;42.46
62928;BME280;51070;52.236;-0.892;2023-04-03T11:25:04;102205.65;;;15.85;42.25
62928;BME280;51070;52.236;-0.892;2023-04-03T11:27:40;102205.41;;;15.93;42.71
62928;BME280;51070;52.236;-0.892;2023-04-03T11:30:22;102200.96;;;16.27;42.62
62928;BME280;51070;52.236;-0.892;2023-04-03T11:33:05;102206.94;;;16.61;41.48
62928;BME280;51070;52.236;-0.892;2023-04-03T11:35:36;102199.63;;;16.83;40.68
62928;BME280;51070;52.236;-0.892;2023-04-03T11:38:04;102199.73;;;16.59;40.16
62928;BME280;51070;52.236;-0.892;2023-04-03T11:40:35;102196.06;;;16.16;40.99
62928;BME280;51070;52.236;-0.892;2023-04-03T11:43:19;102196.59;;;15.80;41.75
62928;BME280;51070;52.236;-0.892;2023-04-03T11:45:52;102193.94;;;15.54;42.37
62928;BME280;51070;52.236;-0.892;2023-04-03T11:58:32;102181.67;;;14.33;44.52
62928;BME280;51070;52.236;-0.892;2023-04-03T12:01:11;102179.94;;;14.50;44.24
62928;BME280;51070;52.236;-0.892;2023-04-03T12:04:05;102176.48;;;14.69;43.87
62928;BME280;51070;52.236;-0.892;2023-04-03T12:08:57;102180.77;;;14.58;43.36
62928;BME280;51070;52.236;-0.892;2023-04-03T12:11:32;102185.80;;;14.44;43.77
62928;BME280;51070;52.236;-0.892;2023-04-03T12:24:34;102164.02;;;15.51;43.40
62928;BME280;51070;52.236;-0.892;2023-04-03T12:32:26;102156.20;;;15.82;40.66
62928;BME280;51070;52.236;-0.892;2023-04-03T12:45:58;102153.70;;;15.64;40.52
62928;BME280;51070;52.236;-0.892;2023-04-03T12:48:29;102144.45;;;15.79;40.21
62928;BME280;51070;52.236;-0.892;2023-04-03T12:50:56;102140.48;;;15.90;39.75
62928;BME280;51070;52.236;-0.892;2023-04-03T12:53:32;102138.14;;;15.94;40.08
62928;BME280;51070;52.236;-0.892;2023-04-03T12:58:47;102135.09;;;15.60;39.89
62928;BME280;51070;52.236;-0.892;2023-04-03T13:01:20;102131.33;;;15.62;40.74
62928;BME280;51070;52.236;-0.892;2023-04-03T13:03:54;102134.31;;;15.57;40.99
62928;BME280;51070;52.236;-0.892;2023-04-03T13:06:27;102130.21;;;15.31;40.80
62928;BME280;51070;52.236;-0.892;2023-04-03T13:08:55;102131.34;;;15.04;41.08
62928;BME280;51070;52.236;-0.892;2023-04-03T13:11:23;102135.41;;;14.82;41.45
62928;BME280;51070;52.236;-0.892;2023-04-03T13:14:17;102127.45;;;14.56;42.25
62928;BME280;51070;52.236;-0.892;2023-04-03T13:16:53;102126.99;;;14.32;43.08
62928;BME280;51070;52.236;-0.892;2023-04-03T13:19:25;102125.66;;;14.28;42.87
62928;BME280;51070;52.236;-0.892;2023-04-03T13:22:00;102120.54;;;14.39;42.92
62928;BME280;51070;52.236;-0.892;2023-04-03T13:24:27;102116.06;;;14.54;42.74
62928;BME280;51070;52.236;-0.892;2023-04-03T13:26:54;102106.66;;;14.67;42.96
62928;BME280;51070;52.236;-0.892;2023-04-03T13:29:28;102102.48;;;14.81;42.72
62928;BME280;51070;52.236;-0.892;2023-04-03T13:31:55;102097.16;;;14.83;42.69
62928;BME280;51070;52.236;-0.892;2023-04-03T13:34:23;102093.08;;;14.81;42.59
62928;BME280;51070;52.236;-0.892;2023-04-03T13:41:47;102082.91;;;14.89;42.60
62928;BME280;51070;52.236;-0.892;2023-04-03T13:46:55;102077.30;;;15.02;42.75
62928;BME280;51070;52.236;-0.892;2023-04-03T13:49:22;102074.50;;;15.06;42.51
62928;BME280;51070;52.236;-0.892;2023-04-03T13:51:53;102071.29;;;15.04;42.44
62928;BME280;51070;52.236;-0.892;2023-04-03T13:54:32;102063.27;;;14.94;41.48
62928;BME280;51070;52.236;-0.892;2023-04-03T13:57:00;102064.15;;;14.89;41.74
62928;BME280;51070;52.236;-0.892;2023-04-03T13:59:35;102061.06;;;14.86;41.62
62928;BME280;51070;52.236;-0.892;2023-04-03T14:04:43;102056.89;;;14.77;41.87
62928;BME280;51070;52.236;-0.892;2023-04-03T14:07:14;102052.69;;;14.81;42.10
62928;BME280;51070;52.236;-0.892;2023-04-03T14:09:41;102050.80;;;14.81;41.93
62928;BME280;51070;52.236;-0.892;2023-04-03T14:12:35;102047.05;;;14.88;42.32
62928;BME280;51070;52.236;-0.892;2023-04-03T14:15:17;102045.61;;;14.92;42.19
62928;BME280;51070;52.236;-0.892;2023-04-03T14:17:44;102043.42;;;14.85;41.76
62928;BME280;51070;52.236;-0.892;2023-04-03T14:20:15;102046.13;;;14.68;41.85
62928;BME280;51070;52.236;-0.892;2023-04-03T14:22:41;102042.80;;;14.67;42.37
62928;BME280;51070;52.236;-0.892;2023-04-03T14:25:07;102045.88;;;14.75;42.61
62928;BME280;51070;52.236;-0.892;2023-04-03T14:27:37;102043.67;;;14.82;42.03
62928;BME280;51070;52.236;-0.892;2023-04-03T14:30:09;102041.38;;;14.81;41.45
62928;BME280;51070;52.236;-0.892;2023-04-03T14:32:35;102043.58;;;14.79;41.78
62928;BME280;51070;52.236;-0.892;2023-04-03T14:35:01;102032.16;;;14.76;41.78
62928;BME280;51070;52.236;-0.892;2023-04-03T14:37:29;102034.71;;;14.80;41.93
62928;BME280;51070;52.236;-0.892;2023-04-03T14:39:55;102034.69;;;14.84;41.80